Time;durP1;ratioP1;P1;durP2;ratioP2;P2;SDS_P1;SDS_P2;PMS_P1;PMS_P2;Temp;Humidity;BMP_temperature;BMP_pressure;BME280_temperature;BME280_humidity;BME280_pressure;Samples;Min_cycle;Max_cycle;Signal;HPM_P1;HPM_P2
2022/04/04 00:09:54;;;;;;;2.80;1.63;;;;;;;;;;20750633;28;20140;-68
2022/04/04 00:19:56;;;;;;;3.38;1.80;;;;;;;;;;20753076;28;20054;-69
2022/04/04 00:29:59;;;;;;;4.68;1.80;;;;;;;;;;20759854;28;20140;-66
2022/04/04 00:40:01;;;;;;;4.07;2.10;;;;;;;;;;20752754;28;20078;-65
2022/04/04 00:50:04;;;;;;;5.10;3.72;;;;;;;;;;20769308;28;20472;-71
2022/04/04 01:00:09;;;;;;;4.80;2.13;;;;;;;;;;20774060;28;20050;-65
2022/04/04 01:10:11;;;;;;;5.72;2.63;;;;;;;;;;20763739;28;20058;-66
2022/04/04 01:20:15;;;;;;;3.53;2.08;;;;;;;;;;20763839;28;20052;-69
2022/04/04 01:30:18;;;;;;;5.95;2.83;;;;;;;;;;20766062;28;20053;-66
2022/04/04 01:40:20;;;;;;;4.00;2.58;;;;;;;;;;20759524;28;20046;-65
2022/04/04 01:50:23;;;;;;;3.88;2.58;;;;;;;;;;20760225;28;20060;-65
2022/04/04 02:00:25;;;;;;;4.00;2.88;;;;;;;;;;20759154;28;20053;-70
2022/04/04 02:10:27;;;;;;;6.18;2.78;;;;;;;;;;20763471;28;20064;-67
2022/04/04 02:20:30;;;;;;;4.40;2.85;;;;;;;;;;20759171;28;20209;-66
2022/04/04 02:30:33;;;;;;;3.80;2.40;;;;;;;;;;20757580;28;20054;-67
2022/04/04 02:40:36;;;;;;;6.45;4.03;;;;;;;;;;20760750;28;20046;-67
2022/04/04 02:50:40;;;;;;;6.32;3.10;;;;;;;;;;20765735;28;20536;-69
2022/04/04 03:00:42;;;;;;;7.38;3.55;;;;;;;;;;20761548;28;20053;-67
2022/04/04 03:10:45;;;;;;;5.10;3.35;;;;;;;;;;20760366;28;20061;-67
2022/04/04 03:20:47;;;;;;;5.68;3.40;;;;;;;;;;20759760;28;20054;-67
2022/04/04 03:30:50;;;;;;;3.95;3.20;;;;;;;;;;20762119;28;20057;-68
2022/04/04 03:40:55;;;;;;;10.20;4.20;;;;;;;;;;20760061;28;20088;-74
2022/04/04 03:50:57;;;;;;;5.80;3.42;;;;;;;;;;20762779;28;20054;-67
2022/04/04 04:01:00;;;;;;;6.47;3.53;;;;;;;;;;20763663;28;20136;-68
2022/04/04 04:11:02;;;;;;;5.90;4.15;;;;;;;;;;20758756;28;20054;-67
2022/04/04 04:21:09;;;;;;;5.97;3.33;;;;;;;;;;20764996;28;20045;-67
2022/04/04 04:31:18;;;;;;;7.50;3.55;;;;;;;;;;20782893;28;20065;-66
2022/04/04 04:41:20;;;;;;;9.38;4.47;;;;;;;;;;20779076;28;20650;-69
2022/04/04 04:51:23;;;;;;;5.57;4.10;;;;;;;;;;20788613;28;20413;-67
2022/04/04 05:01:25;;;;;;;7.13;4.67;;;;;;;;;;20768021;28;20050;-67
2022/04/04 05:11:27;;;;;;;6.20;4.33;;;;;;;;;;20774390;28;20540;-68
2022/04/04 05:21:34;;;;;;;5.93;3.97;;;;;;;;;;20777675;28;20080;-81
2022/04/04 05:31:37;;;;;;;7.00;4.37;;;;;;;;;;20762920;28;20053;-67
2022/04/04 05:41:42;;;;;;;8.65;4.30;;;;;;;;;;20761009;28;20132;-66
2022/04/04 05:51:45;;;;;;;5.93;4.23;;;;;;;;;;20760849;28;20050;-68
2022/04/04 06:01:47;;;;;;;9.25;5.50;;;;;;;;;;20761183;28;20100;-70
2022/04/04 06:11:50;;;;;;;6.90;4.87;;;;;;;;;;20769727;28;20046;-67
2022/04/04 06:21:53;;;;;;;5.70;4.73;;;;;;;;;;20758307;28;20054;-67
2022/04/04 06:31:56;;;;;;;8.83;5.63;;;;;;;;;;20757670;28;20053;-67
2022/04/04 06:41:59;;;;;;;6.43;4.67;;;;;;;;;;20758873;28;20061;-67
2022/04/04 06:52:02;;;;;;;6.45;4.20;;;;;;;;;;20758655;28;20537;-67
2022/04/04 07:02:05;;;;;;;7.37;4.77;;;;;;;;;;20755672;28;20053;-69
2022/04/04 07:12:09;;;;;;;8.47;4.43;;;;;;;;;;20757491;28;20045;-70
2022/04/04 07:22:13;;;;;;;11.37;4.73;;;;;;;;;;20755671;28;20072;-67
2022/04/04 07:32:16;;;;;;;8.27;4.50;;;;;;;;;;20753619;28;20054;-67
2022/04/04 07:42:19;;;;;;;6.15;4.45;;;;;;;;;;20754076;28;20046;-66
2022/04/04 07:52:22;;;;;;;9.35;4.40;;;;;;;;;;20765129;28;20054;-67
2022/04/04 08:02:25;;;;;;;6.63;4.00;;;;;;;;;;20762974;28;20152;-69
2022/04/04 08:12:28;;;;;;;9.00;4.53;;;;;;;;;;20762720;28;20054;-68
2022/04/04 08:22:31;;;;;;;6.63;4.88;;;;;;;;;;20754639;28;20053;-70
2022/04/04 08:32:36;;;;;;;6.95;4.40;;;;;;;;;;20751598;28;20120;-67
2022/04/04 08:42:39;;;;;;;;;;;;;;;;;;20754796;28;20100;-68
2022/04/04 08:52:41;;;;;;;8.68;4.65;;;;;;;;;;20749278;28;20015;-71
2022/04/04 09:02:56;;;;;;;5.22;3.88;;;;;;;;;;20749664;28;20062;-68
2022/04/04 09:13:15;;;;;;;4.95;3.78;;;;;;;;;;20764697;28;20494;-69
2022/04/04 09:23:18;;;;;;;5.78;3.38;;;;;;;;;;20762175;28;20409;-69
2022/04/04 09:33:34;;;;;;;5.40;3.50;;;;;;;;;;20763781;28;20046;-68
2022/04/04 09:43:53;;;;;;;8.80;4.28;;;;;;;;;;20770920;28;20046;-68
2022/04/04 09:54:03;;;;;;;6.00;4.28;;;;;;;;;;20743907;28;20140;-70
2022/04/04 10:04:07;;;;;;;7.97;3.75;;;;;;;;;;20722601;28;20046;-65
2022/04/04 10:14:10;;;;;;;4.32;3.10;;;;;;;;;;20745549;28;20458;-61
2022/04/04 10:24:14;;;;;;;9.50;3.30;;;;;;;;;;20727534;28;20149;-61
2022/04/04 10:34:19;;;;;;;5.10;2.88;;;;;;;;;;20728661;28;20061;-68
2022/04/04 10:44:21;;;;;;;4.07;2.78;;;;;;;;;;20762758;28;20077;-59
2022/04/04 10:54:25;;;;;;;6.13;2.60;;;;;;;;;;20755882;28;20077;-59
2022/04/04 11:04:30;;;;;;;4.78;2.08;;;;;;;;;;20761348;28;20077;-66
2022/04/04 11:14:39;;;;;;;3.90;1.80;;;;;;;;;;20762143;28;20474;-59
2022/04/04 11:24:49;;;;;;;3.35;1.52;;;;;;;;;;20758113;28;20116;-62
2022/04/04 11:34:57;;;;;;;6.57;1.92;;;;;;;;;;20756013;28;20077;-61
2022/04/04 11:45:04;;;;;;;2.78;1.65;;;;;;;;;;20756136;28;20564;-67
2022/04/04 11:55:10;;;;;;;3.45;1.95;;;;;;;;;;20748366;28;20058;-61
2022/04/04 12:05:12;;;;;;;4.15;2.30;;;;;;;;;;20748099;28;20061;-65
2022/04/04 12:15:25;;;;;;;3.63;1.92;;;;;;;;;;20747844;28;20119;-65
2022/04/04 12:25:27;;;;;;;3.88;2.10;;;;;;;;;;20747266;28;20410;-65
2022/04/04 12:35:31;;;;;;;3.67;2.00;;;;;;;;;;20746249;28;20137;-62
2022/04/04 12:45:33;;;;;;;4.82;1.75;;;;;;;;;;20762737;28;20053;-63
2022/04/04 12:55:37;;;;;;;2.00;1.35;;;;;;;;;;20760553;28;20064;-60
2022/04/04 13:05:46;;;;;;;4.53;1.90;;;;;;;;;;20761969;28;20072;-61
2022/04/04 13:15:50;;;;;;;2.97;1.80;;;;;;;;;;20760497;28;20056;-61
2022/04/04 13:25:53;;;;;;;3.03;1.50;;;;;;;;;;20758656;28;20060;-60
2022/04/04 13:35:57;;;;;;;1.77;1.20;;;;;;;;;;20757970;28;20054;-60
2022/04/04 13:46:02;;;;;;;3.78;1.30;;;;;;;;;;20757738;28;20303;-64
2022/04/04 13:56:05;;;;;;;1.90;1.43;;;;;;;;;;20756111;28;20089;-63
2022/04/04 14:06:07;;;;;;;2.33;1.00;;;;;;;;;;20755250;28;20070;-61
2022/04/04 14:16:11;;;;;;;2.10;1.05;;;;;;;;;;20754541;28;20050;-64
2022/04/04 14:26:15;;;;;;;3.50;1.15;;;;;;;;;;20752607;28;20053;-63
2022/04/04 14:36:18;;;;;;;2.53;0.95;;;;;;;;;;20753247;28;20050;-63
2022/04/04 14:46:21;;;;;;;2.00;0.90;;;;;;;;;;20752769;28;20053;-59
2022/04/04 14:56:23;;;;;;;2.72;1.08;;;;;;;;;;20751943;28;20058;-63
2022/04/04 15:06:25;;;;;;;1.80;1.10;;;;;;;;;;20750689;28;20053;-70
2022/04/04 15:16:27;;;;;;;3.08;1.30;;;;;;;;;;20750464;28;20060;-65
2022/04/04 15:26:32;;;;;;;2.25;0.80;;;;;;;;;;20749659;28;20545;-65
2022/04/04 15:36:39;;;;;;;2.50;1.10;;;;;;;;;;20749744;28;20542;-61
2022/04/04 15:46:43;;;;;;;3.13;1.40;;;;;;;;;;20747513;28;20049;-63
2022/04/04 15:56:46;;;;;;;2.88;1.30;;;;;;;;;;20747649;28;20490;-70
2022/04/04 16:06:48;;;;;;;1.77;1.10;;;;;;;;;;20748755;28;20050;-58
2022/04/04 16:16:51;;;;;;;2.28;1.00;;;;;;;;;;20758354;28;20125;-63
2022/04/04 16:26:53;;;;;;;3.00;1.05;;;;;;;;;;20762568;28;20053;-62
2022/04/04 16:36:55;;;;;;;4.70;2.20;;;;;;;;;;20760661;28;20138;-59
2022/04/04 16:46:57;;;;;;;3.80;2.13;;;;;;;;;;20761860;28;20229;-69
2022/04/04 16:56:59;;;;;;;5.00;2.03;;;;;;;;;;20760896;28;20053;-67
2022/04/04 17:07:02;;;;;;;5.63;1.90;;;;;;;;;;20760314;28;20046;-73
2022/04/04 17:17:06;;;;;;;3.25;1.40;;;;;;;;;;20725116;28;20141;-69
2022/04/04 17:45:45;;;;;;;6.45;2.53;;;;;;;;;;21150401;27;20554;-73
2022/04/04 17:55:50;;;;;;;3.35;2.05;;;;;;;;;;21152173;28;20067;-74
2022/04/04 18:05:52;;;;;;;5.60;2.17;;;;;;;;;;21131150;28;20054;-62
2022/04/04 18:15:54;;;;;;;9.43;2.75;;;;;;;;;;21148979;28;20047;-63
2022/04/04 18:25:57;;;;;;;7.47;2.35;;;;;;;;;;21147183;28;20048;-65
2022/04/04 18:36:00;;;;;;;9.23;3.50;;;;;;;;;;21141274;28;20127;-64
2022/04/04 18:46:03;;;;;;;10.52;4.20;;;;;;;;;;21090797;28;20044;-63
2022/04/04 18:56:05;;;;;;;9.43;4.28;;;;;;;;;;21090698;28;20070;-65
2022/04/04 19:06:08;;;;;;;5.38;3.00;;;;;;;;;;21031552;28;20052;-63
2022/04/04 19:16:10;;;;;;;7.63;3.40;;;;;;;;;;20963639;28;20064;-60
2022/04/04 19:26:12;;;;;;;21.48;12.02;;;;;;;;;;20962057;28;20040;-63
2022/04/04 19:36:14;;;;;;;9.90;3.30;;;;;;;;;;20960041;28;20409;-65
2022/04/04 19:46:17;;;;;;;7.95;3.47;;;;;;;;;;20957983;28;20052;-64
2022/04/04 19:56:19;;;;;;;8.55;4.20;;;;;;;;;;20986477;28;20052;-67
2022/04/04 20:06:22;;;;;;;6.60;3.30;;;;;;;;;;20999969;28;20113;-73
2022/04/04 20:16:24;;;;;;;6.00;2.42;;;;;;;;;;20999077;28;20050;-68
2022/04/04 20:26:26;;;;;;;6.57;3.20;;;;;;;;;;20997963;28;20053;-70
2022/04/04 20:36:28;;;;;;;11.77;3.30;;;;;;;;;;20997524;28;20057;-70
2022/04/04 20:46:34;;;;;;;9.18;5.30;;;;;;;;;;20996789;28;20063;-67
2022/04/04 20:56:36;;;;;;;7.93;2.88;;;;;;;;;;20996417;28;20057;-71
2022/04/04 21:06:40;;;;;;;6.57;2.15;;;;;;;;;;20995553;28;20170;-67
2022/04/04 21:16:42;;;;;;;3.42;2.10;;;;;;;;;;20997518;28;20512;-70
2022/04/04 21:26:44;;;;;;;5.65;3.63;;;;;;;;;;21000917;28;20470;-67
2022/04/04 21:36:48;;;;;;;5.18;3.22;;;;;;;;;;20995784;28;20055;-72
2022/04/04 21:46:50;;;;;;;4.57;2.42;;;;;;;;;;20996120;28;20083;-74
2022/04/04 21:56:53;;;;;;;4.43;2.28;;;;;;;;;;20995128;28;20044;-75
2022/04/04 22:06:56;;;;;;;4.60;2.20;;;;;;;;;;20993450;28;20056;-69
2022/04/04 22:16:58;;;;;;;6.38;2.83;;;;;;;;;;21004953;28;20055;-67
2022/04/04 22:27:01;;;;;;;4.75;2.72;;;;;;;;;;20991171;28;20074;-72
2022/04/04 22:37:06;;;;;;;5.65;2.70;;;;;;;;;;21007872;28;20052;-66
2022/04/04 22:47:08;;;;;;;4.03;2.78;;;;;;;;;;21008017;28;20497;-69
2022/04/04 22:57:10;;;;;;;5.18;2.58;;;;;;;;;;21006404;28;20048;-68
2022/04/04 23:07:12;;;;;;;3.50;2.40;;;;;;;;;;21007051;28;20048;-67
2022/04/04 23:17:15;;;;;;;5.53;2.90;;;;;;;;;;21006775;28;20049;-66
2022/04/04 23:27:17;;;;;;;5.38;3.20;;;;;;;;;;21007715;28;20055;-66
2022/04/04 23:37:19;;;;;;;5.22;3.13;;;;;;;;;;21021043;28;20075;-73
2022/04/04 23:47:21;;;;;;;5.45;2.70;;;;;;;;;;21004223;28;20489;-69
2022/04/04 23:57:23;;;;;;;5.35;3.20;;;;;;;;;;21002850;28;20057;-73
